Terminal Aerodrome Forecast
Issued by NWS Louisville, KY

Home | Current Version | Previous Version | Text Only | Print | Product List | Glossary On
Versions: 1 2 3 4 5 6 7 8 9 10 11 12 13
000
FTUS43 KLMK 260500
TAFBWG
TAF
KBWG 260525Z 2606/2706 35003KT P6SM OVC080
     FM261600 35010KT P6SM VCSH BKN028
     FM270100 34010KT P6SM OVC020=

USA.gov is the U.S. government's official web portal to all federal, state and local government web resources and services.